Time;durP1;ratioP1;P1;durP2;ratioP2;P2;SDS_P1;SDS_P2;PMS_P1;PMS_P2;Temp;Humidity;BMP_temperature;BMP_pressure;BME280_temperature;BME280_humidity;BME280_pressure;Samples;Min_cycle;Max_cycle;Signal;HPM_P1;HPM_P2
2021/08/19 00:01:31;;;;;;;15.75;5.30;;;16.10;99.90;;;14.98;95.86;100809.69;5027327;28;20109;-77
2021/08/19 00:03:57;;;;;;;7.72;5.18;;;16.10;99.90;;;15.00;95.50;100848.53;5005697;28;20094;-77
2021/08/19 00:06:23;;;;;;;6.50;4.85;;;16.20;99.90;;;15.01;95.82;100813.09;5044290;28;20045;-76
2021/08/19 00:08:51;;;;;;;16.58;5.78;;;16.10;99.90;;;14.98;95.74;100803.53;5029580;28;20024;-77
2021/08/19 00:11:17;;;;;;;9.82;5.60;;;16.10;99.90;;;15.02;95.44;100814.81;5013748;28;20036;-77
2021/08/19 00:13:43;;;;;;;10.80;5.15;;;16.20;99.90;;;15.02;95.16;100809.50;5012308;28;20491;-77
2021/08/19 00:16:09;;;;;;;11.80;5.38;;;16.20;99.90;;;15.00;95.23;100809.59;4996255;28;20033;-77
2021/08/19 00:18:37;;;;;;;8.73;5.00;;;16.20;99.90;;;14.98;95.15;100799.06;5027306;28;20037;-77
2021/08/19 00:21:06;;;;;;;8.13;4.88;;;16.20;99.90;;;15.04;94.67;100805.81;5019316;28;20028;-77
2021/08/19 00:23:35;;;;;;;7.35;4.80;;;16.20;99.90;;;15.05;94.13;100809.28;5013094;28;20023;-77
2021/08/19 00:26:03;;;;;;;17.17;5.32;;;16.20;99.90;;;15.06;94.05;100803.06;5046008;28;20044;-76
2021/08/19 00:28:29;;;;;;;10.73;5.63;;;16.20;99.90;;;15.08;92.95;100803.81;5019218;28;20036;-77
2021/08/19 00:30:54;;;;;;;10.85;5.13;;;16.20;99.90;;;15.06;93.27;100806.56;5029813;28;20061;-77
2021/08/19 00:33:23;;;;;;;12.57;5.07;;;16.20;99.90;;;15.11;92.19;100803.59;5005505;28;20472;-77
2021/08/19 00:35:49;;;;;;;13.18;5.45;;;16.30;99.90;;;15.10;91.77;100802.75;5029512;28;20029;-77
2021/08/19 00:38:15;;;;;;;11.63;5.13;;;16.20;99.90;;;15.09;91.43;100797.53;5004095;28;20358;-76
2021/08/19 00:40:41;;;;;;;12.55;4.72;;;16.20;99.90;;;15.05;92.19;100799.53;5027940;28;20477;-77
2021/08/19 00:43:07;;;;;;;11.57;5.18;;;16.20;99.90;;;15.03;92.12;100796.16;5006581;28;20027;-77
2021/08/19 00:45:38;;;;;;;7.88;5.30;;;16.20;99.90;;;15.03;92.02;100789.97;5029393;28;20180;-77
2021/08/19 00:48:06;;;;;;;12.40;5.63;;;16.20;99.90;;;15.04;91.81;100792.53;5010569;28;20056;-77
2021/08/19 00:50:32;;;;;;;9.93;4.97;;;16.20;99.90;;;15.00;92.43;100806.09;5007269;28;20029;-77
2021/08/19 00:52:59;;;;;;;13.15;5.30;;;16.20;99.90;;;14.97;92.26;100796.53;5042726;28;20044;-77
2021/08/19 00:55:28;;;;;;;9.43;5.63;;;16.10;99.90;;;14.94;92.26;100794.91;5021057;28;20029;-77
2021/08/19 00:57:56;;;;;;;14.60;4.85;;;16.10;99.90;;;15.00;91.72;100795.50;5027557;28;20033;-77
2021/08/19 01:00:23;;;;;;;14.80;5.18;;;16.10;99.90;;;14.98;91.58;100796.44;5029953;28;20499;-77
2021/08/19 01:02:53;;;;;;;6.38;4.57;;;16.20;99.90;;;15.00;91.52;100801.63;4998246;28;20496;-77
2021/08/19 01:05:35;;;;;;;9.90;5.18;;;16.10;99.90;;;14.95;92.01;100799.28;5019235;28;20037;-77
2021/08/19 01:08:02;;;;;;;8.93;4.70;;;16.10;99.90;;;14.97;91.71;100800.03;5023486;28;20060;-77
2021/08/19 01:10:29;;;;;;;12.63;5.30;;;16.10;99.90;;;14.96;91.62;100798.31;4996696;28;20036;-77
2021/08/19 01:12:56;;;;;;;14.00;5.47;;;16.10;99.90;;;14.96;92.12;100790.38;5027315;28;20078;-77
2021/08/19 01:15:22;;;;;;;16.77;6.22;;;16.10;99.90;;;14.93;92.31;100784.44;5013521;28;20021;-77
2021/08/19 01:18:00;;;;;;;9.25;5.60;;;16.10;99.90;;;14.92;91.92;100780.06;5031184;28;20072;-77
2021/08/19 01:20:31;;;;;;;13.07;5.38;;;16.10;99.90;;;14.94;92.19;100786.97;5032113;28;20033;-77
2021/08/19 01:23:00;;;;;;;11.35;6.43;;;16.10;99.90;;;14.90;92.08;100788.13;5033520;28;20032;-77
2021/08/19 01:25:29;;;;;;;11.20;5.68;;;16.10;99.90;;;14.91;92.21;100781.88;5023743;28;20041;-77
2021/08/19 01:27:57;;;;;;;8.70;5.38;;;16.10;99.90;;;14.93;91.90;100784.44;5014849;28;20049;-77
2021/08/19 01:30:25;;;;;;;13.20;5.53;;;16.10;99.90;;;14.92;92.02;100786.25;5032329;28;20032;-77
2021/08/19 01:32:51;;;;;;;10.55;4.80;;;16.10;99.90;;;14.97;91.13;100797.38;5006121;28;20365;-77
2021/08/19 01:35:27;;;;;;;13.30;5.32;;;16.10;99.90;;;14.98;91.32;100796.44;5023951;28;20502;-77
2021/08/19 01:37:53;;;;;;;;;;;16.20;99.90;;;14.93;91.94;100785.28;5032755;28;20030;-77
2021/08/19 01:40:20;;;;;;;15.88;5.43;;;;;;;14.93;91.40;100779.97;5036141;28;19905;-77
2021/08/19 01:42:46;;;;;;;9.88;4.47;;;16.10;99.90;;;14.93;91.23;100781.78;5020461;28;20036;-78
2021/08/19 01:45:18;;;;;;;12.75;5.45;;;16.10;99.90;;;14.92;90.63;100778.28;5032516;28;20037;-77
2021/08/19 01:47:47;;;;;;;11.23;5.35;;;16.10;99.90;;;14.93;90.11;100765.88;5030845;28;20032;-77
2021/08/19 01:50:13;;;;;;;9.13;5.00;;;16.10;99.90;;;14.94;90.05;100767.56;5022907;28;20032;-77
2021/08/19 01:52:42;;;;;;;13.52;5.32;;;16.10;99.90;;;14.91;90.33;100803.06;5001272;28;20029;-77
2021/08/19 01:55:08;;;;;;;16.10;5.38;;;16.00;99.90;;;14.88;90.77;100774.13;5016918;28;20032;-77
2021/08/19 01:57:34;;;;;;;10.13;5.20;;;16.00;99.90;;;14.83;90.88;100770.91;5019855;28;20033;-77
2021/08/19 02:00:00;;;;;;;17.83;5.03;;;16.00;99.90;;;14.85;90.43;100769.00;5001201;28;20017;-77
2021/08/19 02:02:26;;;;;;;7.57;4.72;;;16.00;99.90;;;14.91;89.83;100771.25;5015593;28;20512;-77
2021/08/19 02:04:52;;;;;;;13.93;4.80;;;16.10;99.90;;;14.88;89.73;100754.69;5022720;28;20041;-76
2021/08/19 02:07:18;;;;;;;9.45;5.15;;;16.00;99.90;;;14.82;89.90;100750.66;5023417;28;20025;-77
2021/08/19 02:09:44;;;;;;;11.15;4.35;;;15.90;99.90;;;14.76;90.72;100756.34;5026460;28;20638;-77
2021/08/19 02:12:09;;;;;;;10.52;4.80;;;15.90;99.90;;;14.70;91.14;100754.91;5004816;28;20499;-77
2021/08/19 02:14:35;;;;;;;8.10;4.18;;;15.80;99.90;;;14.70;91.04;100748.78;5032277;28;20029;-77
2021/08/19 02:17:01;;;;;;;10.93;4.82;;;15.90;99.90;;;14.67;90.91;100748.97;5046830;28;20451;-77
2021/08/19 02:19:27;;;;;;;19.75;5.28;;;15.90;99.90;;;14.73;90.40;100745.94;5024970;28;20026;-77
2021/08/19 02:21:55;;;;;;;15.13;4.95;;;15.90;99.90;;;14.74;89.76;100747.63;5050042;28;20037;-78
2021/08/19 02:24:21;;;;;;;7.15;4.32;;;15.90;99.90;;;14.70;90.38;100740.81;5007134;28;20013;-76
2021/08/19 02:26:47;;;;;;;11.02;4.65;;;15.90;99.90;;;14.66;90.83;100734.00;5005216;28;20531;-77
2021/08/19 02:29:13;;;;;;;9.18;4.45;;;15.80;99.90;;;14.63;90.57;100729.75;5031910;28;20513;-77
2021/08/19 02:31:41;;;;;;;12.00;4.78;;;15.80;99.90;;;14.68;90.28;100732.13;5016180;28;20032;-77
2021/08/19 02:34:08;;;;;;;7.03;4.30;;;15.80;99.90;;;14.68;90.84;100732.13;5015159;28;20439;-76
2021/08/19 02:36:34;;;;;;;10.75;5.10;;;15.80;99.90;;;14.68;90.74;100735.59;5030060;28;20041;-77
2021/08/19 02:39:00;;;;;;;13.55;4.40;;;15.80;99.90;;;14.70;90.90;100740.81;5014657;28;20398;-77
2021/08/19 02:41:28;;;;;;;11.15;5.03;;;15.90;99.90;;;14.67;91.37;100735.72;5019055;28;20151;-76
2021/08/19 02:43:54;;;;;;;9.15;4.78;;;15.80;99.90;;;14.65;92.09;100722.56;5016547;28;20032;-77
2021/08/19 02:46:20;;;;;;;7.47;5.10;;;15.80;99.90;;;14.64;92.73;100733.25;5022615;28;20049;-77
2021/08/19 02:48:46;;;;;;;8.15;5.30;;;15.80;99.90;;;14.60;93.38;100719.38;5029495;28;20429;-77
2021/08/19 02:51:12;;;;;;;10.18;5.85;;;15.80;99.90;;;14.59;93.87;100722.13;5023495;28;20039;-77
2021/08/19 02:53:38;;;;;;;13.00;5.90;;;15.80;99.90;;;14.59;93.79;100732.72;5024079;28;20373;-77
2021/08/19 02:56:04;;;;;;;11.13;5.57;;;15.70;99.90;;;14.57;93.90;100723.03;5001440;28;20077;-77
2021/08/19 02:58:30;;;;;;;17.67;5.78;;;15.70;99.90;;;14.55;93.85;100724.94;5037794;28;21469;-77
2021/08/19 03:00:56;;;;;;;16.98;6.20;;;15.70;99.90;;;14.52;94.57;100722.47;5023501;28;20029;-77
2021/08/19 03:03:22;;;;;;;14.43;6.03;;;15.70;99.90;;;14.52;94.31;100716.31;5031113;28;20029;-77
2021/08/19 03:05:48;;;;;;;16.88;6.45;;;15.70;99.90;;;14.50;94.44;100712.91;5021247;28;20075;-77
2021/08/19 03:08:14;;;;;;;16.13;5.60;;;15.70;99.90;;;14.47;94.87;100719.25;5004981;28;20465;-77
2021/08/19 03:10:40;;;;;;;12.80;6.30;;;15.60;99.90;;;14.44;95.14;100713.28;4998073;28;20110;-77
2021/08/19 03:13:06;;;;;;;19.67;6.30;;;15.60;99.90;;;14.39;95.54;100705.66;5020261;28;20447;-77
2021/08/19 03:15:32;;;;;;;15.88;5.90;;;15.60;99.90;;;14.40;95.21;100704.69;5015205;28;20108;-77
2021/08/19 03:17:58;;;;;;;12.77;6.43;;;15.60;99.90;;;14.39;95.36;100700.34;5012611;28;20053;-77
2021/08/19 03:20:25;;;;;;;13.60;6.45;;;15.60;99.90;;;14.37;95.45;100702.25;5000682;28;20025;-77
2021/08/19 03:22:51;;;;;;;11.73;5.82;;;15.50;99.90;;;14.39;95.61;100716.25;5000759;28;20029;-77
2021/08/19 03:25:17;;;;;;;13.48;5.70;;;15.50;99.90;;;14.34;96.62;100715.66;5000413;28;20519;-77
2021/08/19 03:27:44;;;;;;;14.35;5.97;;;15.50;99.90;;;14.22;98.55;100713.78;4988545;28;20025;-77
2021/08/19 03:30:12;;;;;;;11.13;6.53;;;15.30;99.90;;;13.96;100.00;100713.59;4988779;28;20033;-77
2021/08/19 03:32:39;;;;;;;14.32;7.05;;;15.20;99.90;;;13.90;100.00;100730.69;5006457;28;22351;-78
2021/08/19 03:35:07;;;;;;;12.90;7.57;;;15.20;99.90;;;13.81;100.00;100727.75;5006970;28;20025;-79
2021/08/19 03:37:36;;;;;;;11.90;7.03;;;15.00;99.90;;;13.66;100.00;101023.22;4988139;28;20060;-79
2021/08/19 03:40:05;;;;;;;13.95;7.35;;;14.80;99.90;;;13.50;100.00;101197.81;4980618;28;20083;-79
2021/08/19 03:42:31;;;;;;;12.45;7.32;;;14.70;99.90;;;13.44;100.00;101103.75;4996464;28;20063;-79
2021/08/19 03:44:57;;;;;;;14.50;7.75;;;14.60;99.90;;;13.37;100.00;101024.78;4971324;28;20033;-79
2021/08/19 03:47:23;;;;;;;17.45;5.88;;;14.50;99.90;;;13.28;100.00;100976.78;4965697;28;20031;-79
2021/08/19 03:49:49;;;;;;;11.75;5.07;;;14.50;99.90;;;13.22;100.00;100913.59;4986814;28;20425;-79
2021/08/19 03:52:15;;;;;;;12.38;5.00;;;14.40;99.90;;;13.17;100.00;100912.13;4989968;28;20036;-79
2021/08/19 03:54:41;;;;;;;8.20;4.22;;;14.40;99.90;;;13.16;100.00;100918.38;5004699;28;20365;-79
2021/08/19 03:57:07;;;;;;;8.02;3.45;;;14.40;99.90;;;13.11;100.00;100914.19;4971339;28;20029;-80
2021/08/19 03:59:33;;;;;;;6.22;3.70;;;14.30;99.90;;;13.10;100.00;100893.94;4978865;28;20033;-79
2021/08/19 04:01:59;;;;;;;8.77;3.30;;;14.30;99.90;;;13.11;100.00;100881.63;5014666;28;20108;-80
2021/08/19 04:04:25;;;;;;;6.03;3.08;;;14.30;99.90;;;13.09;100.00;100886.13;5004029;28;20116;-79
2021/08/19 04:06:51;;;;;;;6.28;3.20;;;14.30;99.90;;;13.06;100.00;100870.41;4988114;28;20435;-79
2021/08/19 04:09:20;;;;;;;12.38;3.10;;;14.20;99.90;;;13.01;100.00;100867.19;5010045;28;20040;-79
2021/08/19 04:11:53;;;;;;;7.25;2.92;;;14.20;99.90;;;12.99;100.00;100869.06;4975137;28;20057;-79
2021/08/19 04:14:19;;;;;;;6.38;3.40;;;14.20;99.90;;;13.00;100.00;100876.91;5006212;28;20041;-79
2021/08/19 04:16:45;;;;;;;8.43;3.50;;;14.20;99.90;;;13.01;100.00;100878.59;5035833;28;20112;-79
2021/08/19 04:19:13;;;;;;;10.00;3.92;;;14.20;99.90;;;13.03;100.00;100860.88;5009550;28;20029;-79
2021/08/19 04:21:39;;;;;;;11.00;4.78;;;14.30;99.90;;;13.07;100.00;100853.63;4917612;28;20030;-79
2021/08/19 04:24:05;;;;;;;11.15;5.65;;;14.30;99.90;;;13.09;100.00;100849.97;5002294;28;20553;-79
2021/08/19 04:26:31;;;;;;;10.10;5.63;;;14.30;99.90;;;13.18;100.00;100864.47;4980784;28;20437;-79
2021/08/19 04:28:57;;;;;;;11.35;5.93;;;14.40;99.90;;;13.19;100.00;100849.44;4997833;28;20041;-79
2021/08/19 04:31:23;;;;;;;11.63;6.20;;;14.40;99.90;;;13.21;100.00;100859.00;4994993;28;20524;-79
2021/08/19 04:33:49;;;;;;;13.60;6.03;;;14.40;99.90;;;13.22;100.00;100855.44;4979896;28;20021;-78
2021/08/19 04:36:15;;;;;;;14.82;6.20;;;14.40;99.90;;;13.26;100.00;100862.25;4945678;28;20042;-79
2021/08/19 04:38:44;;;;;;;13.43;5.90;;;14.50;99.90;;;13.29;100.00;100858.63;4982468;28;20049;-79
2021/08/19 04:41:10;;;;;;;13.27;6.07;;;14.50;99.90;;;13.32;100.00;100861.91;5016268;28;20075;-79
2021/08/19 04:43:36;;;;;;;14.35;5.65;;;14.50;99.90;;;13.32;100.00;100861.91;5035914;28;20037;-79
2021/08/19 04:46:02;;;;;;;11.45;5.30;;;14.50;99.90;;;13.34;100.00;100870.63;5027069;28;20041;-78
2021/08/19 04:48:28;;;;;;;12.07;4.72;;;14.60;99.90;;;13.37;100.00;100869.63;5003100;28;20025;-79
2021/08/19 04:50:54;;;;;;;11.57;4.85;;;14.60;99.90;;;13.39;100.00;100877.44;5054457;28;20079;-79
2021/08/19 04:53:20;;;;;;;7.57;4.45;;;14.60;99.90;;;13.40;100.00;100874.72;5003833;28;20101;-79
2021/08/19 04:55:48;;;;;;;9.07;4.53;;;14.60;99.90;;;13.42;100.00;100878.13;5005176;28;20033;-78
2021/08/19 04:58:14;;;;;;;11.68;4.20;;;14.60;99.90;;;13.42;100.00;100875.50;5022128;28;20116;-78
2021/08/19 05:00:41;;;;;;;9.30;4.25;;;14.60;99.90;;;13.43;100.00;100877.19;4978939;28;20148;-79
2021/08/19 05:03:07;;;;;;;6.22;3.85;;;14.60;99.90;;;13.46;100.00;100873.53;5018376;28;20474;-79
2021/08/19 05:05:33;;;;;;;7.65;3.70;;;14.70;99.90;;;13.46;100.00;100882.31;5012158;28;20037;-78
2021/08/19 05:08:02;;;;;;;7.03;3.75;;;14.70;99.90;;;13.48;100.00;100872.50;5001477;28;20398;-78
2021/08/19 05:10:28;;;;;;;8.63;3.95;;;14.70;99.90;;;13.48;100.00;100869.88;4982323;28;20540;-78
2021/08/19 05:12:54;;;;;;;10.48;4.20;;;14.70;99.90;;;13.53;100.00;100886.31;5009657;28;20036;-79
2021/08/19 05:15:20;;;;;;;5.72;3.92;;;14.70;99.90;;;13.50;100.00;100877.72;5025620;28;20393;-78
2021/08/19 05:17:47;;;;;;;10.82;4.35;;;14.70;99.90;;;13.51;100.00;100887.34;4987152;28;20074;-78
2021/08/19 05:20:16;;;;;;;9.85;5.03;;;14.70;99.90;;;13.53;100.00;100886.31;5012778;28;20029;-79
2021/08/19 05:22:42;;;;;;;10.95;3.97;;;14.80;99.90;;;13.59;100.00;100890.41;5017736;28;20032;-79
2021/08/19 05:25:09;;;;;;;10.23;4.70;;;14.80;99.90;;;13.64;100.00;100898.94;4996870;28;20025;-79
2021/08/19 05:27:35;;;;;;;8.50;4.88;;;14.80;99.90;;;13.69;100.00;100902.19;5004410;28;20032;-79
2021/08/19 05:30:01;;;;;;;7.80;4.28;;;14.90;99.90;;;13.71;100.00;100895.03;5021000;28;20089;-79
2021/08/19 05:32:27;;;;;;;9.93;4.32;;;14.90;99.90;;;13.78;100.00;100908.75;4982426;28;20051;-78
2021/08/19 05:34:53;;;;;;;12.38;4.57;;;15.00;99.90;;;13.86;100.00;100908.31;4980926;28;20025;-78
2021/08/19 05:37:22;;;;;;;8.10;4.60;;;15.00;99.90;;;13.86;100.00;100906.50;5007365;28;20102;-79
2021/08/19 05:39:48;;;;;;;7.68;4.68;;;15.00;99.90;;;13.94;100.00;100916.66;4987664;28;20432;-78
2021/08/19 05:42:14;;;;;;;10.75;4.30;;;15.10;99.90;;;14.13;100.00;100922.59;5007337;28;20037;-78
2021/08/19 05:44:40;;;;;;;9.40;4.32;;;15.30;99.90;;;14.22;100.00;100937.09;4966694;28;20077;-78
2021/08/19 05:47:07;;;;;;;10.77;4.25;;;15.40;99.90;;;14.32;99.63;100935.63;5016176;28;20383;-78
2021/08/19 05:49:45;;;;;;;9.07;4.05;;;15.60;99.90;;;14.56;99.37;100961.63;5003391;28;20040;-79
2021/08/19 05:52:12;;;;;;;10.48;4.20;;;15.70;99.90;;;14.72;96.95;100964.22;5019420;28;20112;-78
2021/08/19 05:54:38;;;;;;;9.57;4.25;;;15.80;99.90;;;14.75;96.35;100962.25;5007017;28;20022;-78
2021/08/19 05:57:05;;;;;;;7.32;3.92;;;16.10;99.90;;;15.24;93.41;101005.25;5006058;28;20455;-78
2021/08/19 05:59:30;;;;;;;11.90;4.10;;;16.40;99.90;;;15.66;90.99;101022.09;5008422;28;20476;-79
2021/08/19 06:01:59;;;;;;;10.00;3.83;;;16.50;99.90;;;15.45;90.80;100992.47;5009148;28;20036;-79
2021/08/19 06:04:25;;;;;;;10.93;3.60;;;16.30;99.90;;;15.13;92.59;100956.38;5024772;28;20495;-78
2021/08/19 06:06:51;;;;;;;9.27;3.88;;;16.10;99.90;;;14.89;93.90;100942.00;5008946;28;20076;-78
2021/08/19 06:09:17;;;;;;;14.80;3.60;;;15.90;99.90;;;14.82;94.29;100952.13;5025439;28;20036;-79
2021/08/19 06:11:45;;;;;;;7.93;3.92;;;15.90;99.90;;;14.89;94.68;100947.28;5007658;28;20104;-79
2021/08/19 06:14:11;;;;;;;13.20;4.10;;;16.10;99.90;;;15.28;94.22;100990.88;4977500;28;20115;-78
2021/08/19 06:16:37;;;;;;;14.70;3.53;;;16.40;99.90;;;15.58;91.45;101009.31;5020368;28;20439;-78
2021/08/19 06:19:03;;;;;;;8.40;3.95;;;16.40;99.90;;;15.41;91.43;100985.66;4988577;28;20079;-79
2021/08/19 06:21:29;;;;;;;9.68;3.05;;;16.50;99.90;;;15.47;92.32;100983.47;4999664;28;20021;-79
2021/08/19 06:23:55;;;;;;;11.60;3.40;;;16.40;99.90;;;15.43;90.96;100970.47;5011882;28;20614;-78
2021/08/19 06:26:21;;;;;;;9.90;3.50;;;16.70;99.90;;;15.93;89.12;101022.19;4999605;28;20033;-78
2021/08/19 06:28:47;;;;;;;4.57;2.65;;;16.70;99.90;;;15.71;90.12;100991.69;5006176;28;20060;-78
2021/08/19 06:31:15;;;;;;;6.50;3.00;;;16.50;99.90;;;15.67;90.35;100989.31;5014056;28;20440;-78
2021/08/19 06:33:41;;;;;;;8.35;3.20;;;16.80;99.90;;;15.99;87.43;101006.69;5014032;28;20037;-78
2021/08/19 06:36:07;;;;;;;9.85;3.25;;;16.70;99.90;;;15.70;88.70;100965.19;5024330;28;20038;-78
2021/08/19 06:38:33;;;;;;;8.60;3.28;;;16.70;99.90;;;15.84;88.71;100986.44;5006234;28;20380;-78
2021/08/19 06:40:59;;;;;;;7.03;2.78;;;16.80;99.90;;;16.06;88.52;101009.81;5002745;28;20071;-78
2021/08/19 06:43:25;;;;;;;8.90;3.05;;;16.90;99.90;;;16.03;88.14;101009.16;5024301;28;20385;-78
2021/08/19 06:45:53;;;;;;;6.72;3.30;;;17.00;99.90;;;16.08;87.87;100997.28;5008136;28;20047;-78
2021/08/19 06:48:19;;;;;;;7.93;3.15;;;16.90;99.90;;;15.91;87.61;100985.09;4998400;28;20051;-78
2021/08/19 06:50:45;;;;;;;6.35;2.92;;;16.70;99.90;;;15.59;87.99;100957.94;5014625;28;20033;-78
2021/08/19 06:53:11;;;;;;;13.63;3.47;;;16.60;99.90;;;15.68;88.71;100975.06;4979870;28;20207;-79
2021/08/19 06:55:37;;;;;;;9.70;3.70;;;16.90;99.90;;;16.40;87.86;101042.97;4969243;28;20105;-78
2021/08/19 06:58:03;;;;;;;11.75;3.25;;;17.50;99.90;;;17.32;82.72;101114.88;4996301;28;20040;-78
2021/08/19 07:00:29;;;;;;;9.82;2.95;;;18.10;99.90;;;17.64;79.62;101107.31;4994051;28;20116;-79
2021/08/19 07:02:55;;;;;;;9.55;3.63;;;18.20;99.90;;;17.62;80.90;101106.59;4994839;28;20112;-79
2021/08/19 07:05:23;;;;;;;9.38;3.13;;;18.50;99.90;;;17.81;79.90;101119.47;4985200;28;20037;-79
2021/08/19 07:07:50;;;;;;;10.15;3.67;;;18.70;99.90;;;18.16;77.90;101151.63;5003473;28;20073;-78
2021/08/19 07:10:16;;;;;;;4.88;2.83;;;19.00;99.90;;;18.03;78.24;101109.03;4978591;28;20037;-79
2021/08/19 07:12:42;;;;;;;8.07;3.03;;;18.30;99.90;;;16.98;81.82;101024.94;5018948;28;20111;-79
2021/08/19 07:15:09;;;;;;;10.90;4.22;;;17.60;99.90;;;16.49;84.83;100985.72;5016979;28;20037;-78
2021/08/19 07:17:44;;;;;;;7.82;3.40;;;17.60;99.90;;;16.62;86.15;101009.66;5023337;28;20025;-78
2021/08/19 07:20:11;;;;;;;8.63;3.85;;;17.50;99.90;;;16.47;84.40;100987.63;5014521;28;20032;-78
2021/08/19 07:22:37;;;;;;;5.85;3.53;;;17.40;99.90;;;16.75;82.93;101017.66;5002382;28;20028;-78
2021/08/19 07:25:04;;;;;;;7.82;3.33;;;17.60;99.90;;;16.68;83.16;101205.16;5013799;28;20508;-78
2021/08/19 07:27:32;;;;;;;9.90;3.70;;;17.50;99.90;;;16.67;84.48;101200.78;4994152;28;20029;-78
2021/08/19 07:29:59;;;;;;;7.80;3.22;;;17.80;99.90;;;17.22;82.03;101203.34;5008409;28;20091;-78
2021/08/19 07:32:26;;;;;;;8.70;3.00;;;17.80;99.90;;;16.83;82.43;101103.13;5026045;28;20021;-78
2021/08/19 07:34:51;;;;;;;7.72;3.08;;;17.50;99.90;;;16.61;84.22;101072.63;5015111;28;20025;-78
2021/08/19 07:37:17;;;;;;;6.43;3.03;;;17.40;99.90;;;16.51;85.09;101074.19;5010880;28;20032;-78
2021/08/19 07:39:43;;;;;;;16.20;3.83;;;17.50;99.90;;;16.44;84.67;101033.00;5003436;28;20422;-78
2021/08/19 07:42:10;;;;;;;8.48;3.28;;;17.20;99.90;;;16.09;85.34;101062.75;4997997;28;20143;-78
2021/08/19 07:44:36;;;;;;;5.78;3.05;;;17.10;99.90;;;16.10;86.66;101039.69;4997797;28;20417;-78
2021/08/19 07:47:02;;;;;;;8.27;3.20;;;17.10;99.90;;;16.02;84.86;101002.97;5003183;28;20037;-78
2021/08/19 07:49:28;;;;;;;10.52;3.40;;;17.10;99.90;;;16.12;86.62;101014.72;4987991;28;20048;-78
2021/08/19 07:51:54;;;;;;;9.65;3.38;;;17.00;99.90;;;15.90;85.34;100995.84;5001666;28;20040;-78
2021/08/19 07:54:20;;;;;;;8.52;2.92;;;16.90;99.90;;;15.79;86.71;100985.91;4977587;28;20033;-78
2021/08/19 07:56:46;;;;;;;8.25;3.30;;;16.90;99.90;;;15.94;87.92;101034.53;5019608;28;20029;-78
2021/08/19 07:59:13;;;;;;;6.57;3.05;;;17.00;99.90;;;16.04;86.34;101019.69;5008049;28;20025;-78
2021/08/19 08:01:39;;;;;;;10.95;3.65;;;17.10;99.90;;;16.30;85.01;101049.84;5020721;28;20049;-78
2021/08/19 08:04:08;;;;;;;8.40;3.30;;;17.60;99.90;;;17.18;83.94;101134.47;5025372;28;20040;-78
2021/08/19 08:06:48;;;;;;;13.98;3.45;;;17.90;99.90;;;17.12;81.09;101079.00;5014305;28;20122;-78
2021/08/19 08:09:33;;;;;;;7.72;3.40;;;18.20;99.90;;;17.53;80.04;101116.06;4983265;28;20028;-78
2021/08/19 08:12:01;;;;;;;12.18;4.53;;;18.40;99.90;;;17.39;78.95;101276.75;4990862;28;20025;-78
2021/08/19 08:14:27;;;;;;;13.50;4.18;;;18.50;99.90;;;17.66;80.75;101283.84;4976668;28;20103;-79
2021/08/19 08:16:53;;;;;;;13.55;4.15;;;18.60;99.90;;;17.48;80.84;101141.31;5007094;28;20047;-78
2021/08/19 08:19:46;;;;;;;9.90;3.92;;;18.60;99.90;;;17.40;79.33;101120.53;4982117;28;20037;-78
2021/08/19 08:22:44;;;;;;;9.27;4.15;;;18.60;99.90;;;17.59;79.63;101120.13;5000688;28;20241;-78
2021/08/19 08:25:45;;;;;;;10.27;4.07;;;18.60;99.90;;;17.00;80.40;101054.13;4979919;28;20044;-78
2021/08/19 08:28:40;;;;;;;12.00;3.80;;;18.10;99.90;;;16.46;83.16;101017.81;4999133;28;20052;-78
2021/08/19 08:31:45;;;;;;;7.45;4.07;;;17.80;99.90;;;16.33;84.96;101019.59;4979506;28;20067;-78
2021/08/19 08:34:58;;;;;;;10.07;4.10;;;17.40;99.90;;;15.69;87.47;100961.69;4983270;28;20032;-78
2021/08/19 08:38:12;;;;;;;8.93;3.75;;;16.80;99.90;;;14.87;90.36;101246.97;4991687;28;20029;-79
2021/08/19 08:41:19;;;;;;;7.03;2.78;;;15.90;99.90;;;14.08;93.17;101215.06;5000491;28;20393;-79
2021/08/19 08:44:32;;;;;;;6.80;1.95;;;15.20;99.90;;;13.48;94.74;101160.84;4991791;28;20211;-79
2021/08/19 08:47:58;;;;;;;8.15;2.05;;;14.60;99.90;;;13.05;98.09;101104.00;4982097;28;20045;-79
2021/08/19 08:51:33;;;;;;;12.25;2.10;;;14.40;99.90;;;13.14;100.00;101132.59;4975435;28;20045;-81
2021/08/19 08:54:20;;;;;;;6.88;2.03;;;14.60;99.90;;;13.32;100.00;101129.03;4980613;28;20271;-80
2021/08/19 08:56:57;;;;;;;8.00;2.42;;;14.70;99.90;;;13.46;100.00;101130.13;4982433;28;20038;-80
2021/08/19 09:00:25;;;;;;;7.68;2.20;;;14.90;99.90;;;13.84;100.00;101158.97;4932065;28;20120;-80
2021/08/19 09:03:13;;;;;;;10.65;2.35;;;15.40;99.90;;;14.18;99.39;101134.19;4961046;28;20037;-80
2021/08/19 09:06:05;;;;;;;7.80;2.22;;;15.40;99.90;;;14.18;99.23;101114.81;4965190;28;20550;-80
2021/08/19 09:09:41;;;;;;;5.55;2.42;;;15.50;99.90;;;14.25;99.60;101092.31;4951588;28;20041;-80
2021/08/19 09:12:57;;;;;;;5.13;2.35;;;15.60;99.90;;;14.28;100.00;101082.41;4990986;28;20119;-80
2021/08/19 09:17:00;;;;;;;6.25;2.90;;;15.70;99.90;;;14.77;100.00;101113.22;4986787;28;20036;-80
2021/08/19 09:20:13;;;;;;;7.25;3.05;;;16.30;99.90;;;15.69;99.57;101191.81;4990749;28;20492;-80
2021/08/19 09:23:58;;;;;;;8.98;3.30;;;16.90;99.90;;;15.94;94.36;101172.63;4991542;28;20049;-80
2021/08/19 09:27:43;;;;;;;9.30;3.33;;;17.10;99.90;;;15.79;93.31;101114.19;4985946;28;20044;-80
2021/08/19 09:31:04;;;;;;;11.82;3.70;;;17.10;99.90;;;15.83;95.59;101119.28;4987503;28;20534;-79
2021/08/19 09:34:28;;;;;;;9.05;3.60;;;17.10;99.90;;;15.99;95.25;101125.38;4981902;28;20495;-80
2021/08/19 09:38:10;;;;;;;10.65;4.57;;;17.40;99.90;;;16.46;94.02;101141.88;5003852;28;20049;-80
2021/08/19 09:42:02;;;;;;;16.33;5.90;;;17.40;99.90;;;16.32;87.43;101103.75;5022552;28;20158;-80
2021/08/19 09:45:26;;;;;;;11.63;4.90;;;17.10;99.90;;;16.05;86.96;101079.84;4982946;28;20477;-79
2021/08/19 09:48:53;;;;;;;12.10;5.03;;;17.10;99.90;;;16.17;88.48;101108.25;4995260;28;20048;-80
2021/08/19 09:51:44;;;;;;;10.05;4.53;;;17.40;99.90;;;16.57;85.55;101120.78;4988021;28;20400;-78
2021/08/19 09:55:36;;;;;;;9.25;4.55;;;17.70;99.90;;;16.72;84.28;101121.56;5036143;28;20136;-80
2021/08/19 09:59:36;;;;;;;6.47;4.20;;;18.00;99.90;;;17.09;81.48;101149.25;4993921;28;20954;-80
2021/08/19 10:02:49;;;;;;;8.48;4.10;;;18.30;99.90;;;17.17;82.54;101160.25;4984535;28;20411;-79
2021/08/19 10:06:31;;;;;;;10.68;3.88;;;18.20;99.90;;;16.56;87.74;101114.59;4983204;28;20037;-79
2021/08/19 10:10:38;;;;;;;9.55;3.90;;;17.90;99.90;;;16.32;88.79;101105.56;4973783;28;20041;-80
2021/08/19 10:14:39;;;;;;;9.68;4.30;;;17.60;99.90;;;16.35;92.84;101118.66;4996517;28;20084;-80
2021/08/19 10:18:54;;;;;;;10.13;3.88;;;18.00;99.90;;;17.40;92.23;101171.97;4991296;28;20056;-79
2021/08/19 10:21:47;;;;;;;8.48;3.75;;;18.60;99.90;;;17.10;93.04;101127.00;5025170;28;20083;-79
2021/08/19 10:25:36;;;;;;;9.75;4.05;;;18.60;99.90;;;17.29;93.37;101166.53;4983666;28;20036;-78
2021/08/19 10:29:25;;;;;;;8.80;3.43;;;19.40;99.90;;;18.78;84.76;101237.88;4997028;28;20033;-78
2021/08/19 10:33:01;;;;;;;12.63;4.10;;;19.90;99.90;;;18.65;82.93;101201.38;4992372;28;20033;-78
2021/08/19 10:36:26;;;;;;;8.18;3.90;;;20.20;99.90;;;19.18;79.65;101216.22;4985483;28;20053;-79
2021/08/19 10:39:19;;;;;;;10.07;3.88;;;20.10;99.90;;;18.60;83.42;101163.53;4955492;28;20067;-79
2021/08/19 10:42:42;;;;;;;13.07;4.03;;;20.10;99.90;;;18.88;81.78;101190.00;4997676;28;20041;-78
2021/08/19 10:45:49;;;;;;;6.38;2.97;;;20.50;99.90;;;19.56;75.16;101276.56;4977106;28;20488;-79
2021/08/19 10:49:37;;;;;;;7.95;3.78;;;20.70;99.90;;;19.77;71.27;101269.63;4978541;28;20151;-79